Time;durP1;ratioP1;P1;durP2;ratioP2;P2;SDS_P1;SDS_P2;PMS_P1;PMS_P2;Temp;Humidity;BMP_temperature;BMP_pressure;BME280_temperature;BME280_humidity;BME280_pressure;Samples;Min_cycle;Max_cycle;Signal;HPM_P1;HPM_P2
2022/04/15 00:02:20;;;;;;;2.88;1.85;;;13.10;99.90;;;;;;5022401;28;20049;-60
2022/04/15 00:04:46;;;;;;;2.50;1.75;;;13.10;99.90;;;;;;5021857;28;20485;-60
2022/04/15 00:07:13;;;;;;;4.18;1.63;;;13.00;99.90;;;;;;5021180;28;20088;-60
2022/04/15 00:09:40;;;;;;;1.90;1.50;;;12.90;99.90;;;;;;5022297;28;20076;-61
2022/04/15 00:12:10;;;;;;;1.73;1.33;;;12.90;99.90;;;;;;5020414;28;20141;-60
2022/04/15 00:14:37;;;;;;;2.00;1.48;;;12.80;99.90;;;;;;5020159;28;20056;-60
2022/04/15 00:17:04;;;;;;;1.88;1.15;;;12.70;99.90;;;;;;5021574;28;20376;-60
2022/04/15 00:19:30;;;;;;;2.30;1.52;;;12.60;99.90;;;;;;5022034;28;20460;-60
2022/04/15 00:21:57;;;;;;;3.00;1.73;;;12.60;99.90;;;;;;5020999;28;20158;-60
2022/04/15 00:24:24;;;;;;;1.92;1.20;;;12.60;99.90;;;;;;5021270;28;20049;-61
2022/04/15 00:26:51;;;;;;;3.25;1.70;;;12.40;99.90;;;;;;5021446;28;20132;-59
2022/04/15 00:29:18;;;;;;;2.60;1.70;;;12.40;99.90;;;;;;5022375;28;20057;-60
2022/04/15 00:31:44;;;;;;;2.38;1.33;;;12.30;99.90;;;;;;5019237;28;20463;-61
2022/04/15 00:34:11;;;;;;;2.35;1.65;;;12.20;99.90;;;;;;5021069;28;20454;-60
2022/04/15 00:36:38;;;;;;;2.00;1.42;;;12.20;99.90;;;;;;5020144;28;20092;-60
2022/04/15 00:39:05;;;;;;;2.25;1.40;;;12.10;99.90;;;;;;5021799;28;20211;-60
2022/04/15 00:41:32;;;;;;;2.67;1.52;;;12.00;99.90;;;;;;5022025;28;20127;-60
2022/04/15 00:43:59;;;;;;;2.47;1.85;;;12.00;99.90;;;;;;5021125;28;20096;-60
2022/04/15 00:46:26;;;;;;;2.92;1.40;;;12.00;99.90;;;;;;5020257;28;20077;-60
2022/04/15 00:48:52;;;;;;;2.33;1.48;;;12.00;99.90;;;;;;5003482;28;20085;-60
2022/04/15 00:51:26;;;;;;;;;;;11.90;99.90;;;;;;5011704;28;20498;-60
2022/04/15 00:53:53;;;;;;;1.27;1.02;;;11.80;99.90;;;;;;5019116;28;19975;-60
2022/04/15 00:56:20;;;;;;;2.25;1.30;;;11.70;99.90;;;;;;5003672;28;20137;-60
2022/04/15 00:58:46;;;;;;;2.63;1.67;;;11.70;99.90;;;;;;5013325;28;20481;-59
2022/04/15 01:01:13;;;;;;;2.55;1.40;;;11.60;99.90;;;;;;5028527;28;20128;-60
2022/04/15 01:03:40;;;;;;;5.57;1.77;;;11.60;99.90;;;;;;5015119;28;20412;-60
2022/04/15 01:06:13;;;;;;;2.50;1.70;;;11.60;99.90;;;;;;5015398;28;20425;-60
2022/04/15 01:08:40;;;;;;;1.95;1.42;;;11.50;99.90;;;;;;5021888;28;20068;-60
2022/04/15 01:11:07;;;;;;;2.97;1.40;;;11.50;99.90;;;;;;5018786;28;20116;-60
2022/04/15 01:13:36;;;;;;;2.75;1.35;;;11.40;99.90;;;;;;5031581;28;20049;-60
2022/04/15 01:16:03;;;;;;;2.30;1.40;;;11.40;99.90;;;;;;5022714;28;20053;-60
2022/04/15 01:18:30;;;;;;;1.80;1.42;;;11.40;99.90;;;;;;5024505;28;20088;-60
2022/04/15 01:20:56;;;;;;;3.47;1.60;;;11.30;99.90;;;;;;5023437;28;20244;-60
2022/04/15 01:23:23;;;;;;;2.75;1.80;;;11.30;99.90;;;;;;5018190;28;20473;-60
2022/04/15 01:25:50;;;;;;;2.88;1.75;;;11.30;99.90;;;;;;5013832;28;20093;-60
2022/04/15 01:28:17;;;;;;;2.53;1.40;;;11.30;99.90;;;;;;5017554;28;20160;-61
2022/04/15 01:30:44;;;;;;;2.60;1.60;;;11.30;99.90;;;;;;5023200;28;20056;-60
2022/04/15 01:33:11;;;;;;;2.63;1.73;;;11.30;99.90;;;;;;5027218;28;20538;-60
2022/04/15 01:35:40;;;;;;;2.13;1.45;;;11.20;99.90;;;;;;5033149;28;20140;-60
2022/04/15 01:38:10;;;;;;;1.58;1.38;;;11.20;99.90;;;;;;5034931;28;20512;-60
2022/04/15 01:40:37;;;;;;;2.00;1.48;;;11.20;99.90;;;;;;5034309;28;20129;-60
2022/04/15 01:43:04;;;;;;;2.03;1.40;;;11.20;99.90;;;;;;5034576;28;20155;-60
2022/04/15 01:45:31;;;;;;;1.88;1.48;;;11.20;99.90;;;;;;5029793;28;20061;-60
2022/04/15 01:47:58;;;;;;;1.95;1.30;;;11.20;99.90;;;;;;5028540;28;20411;-60
2022/04/15 01:50:28;;;;;;;3.53;2.20;;;11.20;99.90;;;;;;5028968;28;20582;-60
2022/04/15 01:52:56;;;;;;;2.45;1.63;;;11.20;99.90;;;;;;5024278;28;20155;-58
2022/04/15 01:55:22;;;;;;;1.85;1.52;;;11.20;99.90;;;;;;5028006;28;20215;-60
2022/04/15 01:57:49;;;;;;;2.15;1.50;;;11.10;99.90;;;;;;5028135;28;20377;-60
2022/04/15 02:00:16;;;;;;;1.77;1.20;;;11.10;99.90;;;;;;5027244;28;20136;-60
2022/04/15 02:02:43;;;;;;;1.70;1.35;;;11.10;99.90;;;;;;5029200;28;20192;-60
2022/04/15 02:05:10;;;;;;;1.80;1.33;;;11.10;99.90;;;;;;5024524;28;20138;-60
2022/04/15 02:07:36;;;;;;;1.60;1.20;;;11.00;99.90;;;;;;5025663;28;20511;-60
2022/04/15 02:10:04;;;;;;;1.92;1.33;;;11.00;99.90;;;;;;5033811;28;20107;-60
2022/04/15 02:12:31;;;;;;;2.78;1.65;;;11.00;99.90;;;;;;5028423;28;20049;-60
2022/04/15 02:14:58;;;;;;;2.28;1.33;;;11.00;99.90;;;;;;5028027;28;20533;-60
2022/04/15 02:17:24;;;;;;;3.00;1.35;;;11.00;99.90;;;;;;5022823;28;20095;-60
2022/04/15 02:19:52;;;;;;;2.40;1.33;;;11.00;99.90;;;;;;5041595;28;20080;-60
2022/04/15 02:22:19;;;;;;;2.67;1.80;;;10.90;99.90;;;;;;5039289;28;20140;-60
2022/04/15 02:24:46;;;;;;;1.67;1.27;;;10.90;99.90;;;;;;5025949;28;20678;-60
2022/04/15 02:27:12;;;;;;;2.63;1.50;;;10.90;99.90;;;;;;5025734;28;20049;-60
2022/04/15 02:29:39;;;;;;;2.22;1.40;;;10.80;99.90;;;;;;5025070;28;20128;-60
2022/04/15 02:32:06;;;;;;;2.35;1.45;;;10.80;99.90;;;;;;5032249;28;20307;-60
2022/04/15 02:34:33;;;;;;;2.22;1.48;;;10.70;99.90;;;;;;5025715;28;20215;-60
2022/04/15 02:37:00;;;;;;;1.65;1.50;;;10.70;99.90;;;;;;5024903;28;20125;-59
2022/04/15 02:39:26;;;;;;;3.88;1.67;;;10.70;99.90;;;;;;5025487;28;20842;-60
2022/04/15 02:41:55;;;;;;;2.83;1.77;;;10.70;99.90;;;;;;5025705;28;20049;-60
2022/04/15 02:44:23;;;;;;;3.95;1.60;;;10.60;99.90;;;;;;5024197;28;20081;-60
2022/04/15 02:46:53;;;;;;;2.70;1.40;;;10.60;99.90;;;;;;5023074;28;20178;-60
2022/04/15 02:49:20;;;;;;;1.42;1.15;;;10.60;99.90;;;;;;5025350;28;20073;-60
2022/04/15 02:51:47;;;;;;;2.83;1.70;;;10.60;99.90;;;;;;5006066;28;20131;-60
2022/04/15 02:54:13;;;;;;;1.95;1.40;;;10.50;99.90;;;;;;5023953;28;20438;-60
2022/04/15 02:56:40;;;;;;;2.47;1.45;;;10.50;99.90;;;;;;5025436;28;20115;-60
2022/04/15 02:59:07;;;;;;;2.00;1.52;;;10.40;99.90;;;;;;5025734;28;20080;-60
2022/04/15 03:01:33;;;;;;;2.05;1.42;;;10.40;99.90;;;;;;5024144;28;20136;-60
2022/04/15 03:04:00;;;;;;;3.45;2.03;;;10.40;99.90;;;;;;5021418;28;20072;-60
2022/04/15 03:06:27;;;;;;;1.98;1.30;;;10.30;99.90;;;;;;5024011;28;20084;-60
2022/04/15 03:08:55;;;;;;;2.40;1.40;;;10.30;99.90;;;;;;5044042;28;20255;-60
2022/04/15 03:11:21;;;;;;;1.90;1.33;;;10.30;99.90;;;;;;5040575;28;20052;-60
2022/04/15 03:13:48;;;;;;;2.33;1.77;;;10.20;99.90;;;;;;5019463;28;20510;-60
2022/04/15 03:16:15;;;;;;;2.80;1.58;;;10.20;99.90;;;;;;5024154;28;20143;-61
2022/04/15 03:18:42;;;;;;;1.55;1.27;;;10.10;99.90;;;;;;5025544;28;20799;-60
2022/04/15 03:21:09;;;;;;;2.65;1.50;;;10.10;99.90;;;;;;5024480;28;20117;-61
2022/04/15 03:23:35;;;;;;;2.28;1.50;;;10.10;99.90;;;;;;5035232;28;20148;-60
2022/04/15 03:26:02;;;;;;;1.73;1.30;;;10.10;99.90;;;;;;5043246;28;20529;-60
2022/04/15 03:28:29;;;;;;;1.80;1.52;;;10.00;99.90;;;;;;5035924;28;20124;-60
2022/04/15 03:30:56;;;;;;;1.90;1.23;;;10.00;99.90;;;;;;5023992;28;20049;-60
2022/04/15 03:33:23;;;;;;;2.30;1.60;;;10.00;99.90;;;;;;5024308;28;20096;-60
2022/04/15 03:35:49;;;;;;;1.80;1.30;;;9.90;99.90;;;;;;5024017;28;20137;-60
2022/04/15 03:38:16;;;;;;;2.03;1.50;;;9.90;99.90;;;;;;5024668;28;20232;-60
2022/04/15 03:40:43;;;;;;;3.22;2.17;;;9.90;99.90;;;;;;5023148;28;20156;-60
2022/04/15 03:43:10;;;;;;;2.50;1.80;;;9.80;99.90;;;;;;5024837;28;20069;-60
2022/04/15 03:45:36;;;;;;;2.55;1.60;;;9.90;99.90;;;;;;5023700;28;20732;-60
2022/04/15 03:48:03;;;;;;;2.60;1.70;;;9.80;99.90;;;;;;5024773;28;20081;-60
2022/04/15 03:50:30;;;;;;;2.85;1.42;;;9.90;99.90;;;;;;5019714;28;20140;-60
2022/04/15 03:52:57;;;;;;;2.60;1.70;;;9.90;99.90;;;;;;5024115;28;20120;-61
2022/04/15 03:55:26;;;;;;;1.90;1.30;;;9.90;99.90;;;;;;5024521;28;20542;-60
2022/04/15 03:57:53;;;;;;;1.95;1.60;;;9.80;99.90;;;;;;5024371;28;20164;-61
2022/04/15 04:00:21;;;;;;;3.22;1.80;;;9.80;99.90;;;;;;5018432;28;20132;-60
2022/04/15 04:02:49;;;;;;;2.90;1.70;;;9.80;99.90;;;;;;5024528;28;20456;-62
2022/04/15 04:05:16;;;;;;;1.67;1.40;;;9.70;99.90;;;;;;5024249;28;20126;-61
2022/04/15 04:07:43;;;;;;;2.95;1.63;;;9.70;99.90;;;;;;5021093;28;20111;-60
2022/04/15 04:10:12;;;;;;;2.28;1.65;;;9.70;99.90;;;;;;5027019;28;20500;-60
2022/04/15 04:12:39;;;;;;;3.40;1.67;;;9.60;99.90;;;;;;5034778;28;20450;-60
2022/04/15 04:15:06;;;;;;;2.10;1.50;;;9.60;99.90;;;;;;5021739;28;20045;-60
2022/04/15 04:17:33;;;;;;;2.08;1.40;;;9.60;99.90;;;;;;5032663;28;20128;-60
2022/04/15 04:20:01;;;;;;;3.20;2.03;;;9.60;99.90;;;;;;5042874;28;20045;-60
2022/04/15 04:22:32;;;;;;;2.88;2.22;;;9.50;99.90;;;;;;5023125;28;20117;-60
2022/04/15 04:24:59;;;;;;;2.70;1.50;;;9.50;99.90;;;;;;5023975;28;20135;-60
2022/04/15 04:27:25;;;;;;;1.92;1.40;;;9.50;99.90;;;;;;5023632;28;20059;-60
2022/04/15 04:29:52;;;;;;;2.65;1.75;;;9.50;99.90;;;;;;5021414;28;20177;-63
2022/04/15 04:32:19;;;;;;;2.30;1.50;;;9.50;99.90;;;;;;5023117;28;20052;-60
2022/04/15 04:34:46;;;;;;;2.65;1.75;;;9.40;99.90;;;;;;5023555;28;20141;-60
2022/04/15 04:37:13;;;;;;;2.60;1.58;;;9.40;99.90;;;;;;5021626;28;20077;-60
2022/04/15 04:39:39;;;;;;;2.35;1.70;;;9.40;99.90;;;;;;5023429;28;20152;-60
2022/04/15 04:42:07;;;;;;;2.42;1.80;;;9.30;99.90;;;;;;5022920;28;20084;-60
2022/04/15 04:44:34;;;;;;;1.85;1.42;;;9.20;99.90;;;;;;5021625;28;20073;-60
2022/04/15 04:47:01;;;;;;;2.03;1.60;;;9.20;99.90;;;;;;5021437;28;20427;-60
2022/04/15 04:49:28;;;;;;;2.20;1.77;;;9.20;99.90;;;;;;5021451;28;20076;-60
2022/04/15 04:51:54;;;;;;;2.78;1.65;;;9.20;99.90;;;;;;5021008;28;20140;-60
2022/04/15 04:54:21;;;;;;;1.75;1.35;;;9.20;99.90;;;;;;5022203;28;20151;-60
2022/04/15 04:56:48;;;;;;;4.43;2.35;;;9.20;99.90;;;;;;5021519;28;20064;-59
2022/04/15 04:59:15;;;;;;;2.85;1.80;;;9.20;99.90;;;;;;5023399;28;20172;-60
2022/04/15 05:01:42;;;;;;;2.40;1.98;;;9.10;99.90;;;;;;5022056;28;20160;-59
2022/04/15 05:04:09;;;;;;;2.38;1.63;;;9.10;99.90;;;;;;5019278;28;20064;-60
2022/04/15 05:06:35;;;;;;;2.75;1.85;;;9.10;99.90;;;;;;5017559;28;20574;-60
2022/04/15 05:09:02;;;;;;;2.10;1.70;;;9.10;99.90;;;;;;5017969;28;20230;-60
2022/04/15 05:11:29;;;;;;;4.03;1.83;;;9.20;99.90;;;;;;5017720;28;20129;-60
2022/04/15 05:13:56;;;;;;;2.38;1.75;;;9.20;99.90;;;;;;5030975;28;20143;-60
2022/04/15 05:16:22;;;;;;;2.88;1.92;;;9.20;99.90;;;;;;5035838;28;20132;-60
2022/04/15 05:18:49;;;;;;;3.17;1.77;;;9.30;99.90;;;;;;5036198;28;20712;-60
2022/04/15 05:21:16;;;;;;;4.05;1.75;;;9.30;99.90;;;;;;5031368;28;20140;-60
2022/04/15 05:23:45;;;;;;;2.95;1.88;;;9.30;99.90;;;;;;5024825;28;20128;-59
2022/04/15 05:26:12;;;;;;;3.45;2.10;;;9.40;99.90;;;;;;5022587;28;20135;-60
2022/04/15 05:28:41;;;;;;;3.05;1.65;;;9.40;99.90;;;;;;5020274;28;20202;-60
2022/04/15 05:31:08;;;;;;;3.35;2.10;;;9.40;99.90;;;;;;5009377;28;20152;-60
2022/04/15 05:33:35;;;;;;;3.00;2.20;;;9.40;99.90;;;;;;4999808;28;20076;-60
2022/04/15 05:36:02;;;;;;;2.35;1.73;;;9.40;99.90;;;;;;5012153;28;20160;-60
2022/04/15 05:38:29;;;;;;;3.13;2.30;;;9.50;99.90;;;;;;5010944;28;20073;-60
2022/04/15 05:40:56;;;;;;;2.50;1.85;;;9.50;99.90;;;;;;4997932;28;20237;-60
2022/04/15 05:43:23;;;;;;;2.65;1.80;;;9.50;99.90;;;;;;5010015;28;20141;-60
2022/04/15 05:45:50;;;;;;;2.80;2.17;;;9.50;99.90;;;;;;5010223;28;20053;-60
2022/04/15 05:48:17;;;;;;;3.15;2.00;;;9.60;99.90;;;;;;4995902;28;20517;-59
2022/04/15 05:50:44;;;;;;;2.58;1.75;;;9.70;99.90;;;;;;4998421;28;20136;-59
2022/04/15 05:53:12;;;;;;;4.43;2.28;;;9.70;99.90;;;;;;5004545;28;20107;-59
2022/04/15 05:55:39;;;;;;;2.10;1.63;;;9.80;99.90;;;;;;5003572;28;20046;-60
2022/04/15 05:58:08;;;;;;;4.13;2.28;;;9.80;99.90;;;;;;4999230;28;20137;-59
2022/04/15 06:00:35;;;;;;;3.55;2.20;;;9.80;99.90;;;;;;5004533;28;20054;-60
2022/04/15 06:03:02;;;;;;;2.65;2.10;;;9.90;99.90;;;;;;5014461;28;20201;-59
2022/04/15 06:05:30;;;;;;;3.20;2.42;;;9.90;99.90;;;;;;5016142;28;20049;-59
2022/04/15 06:07:57;;;;;;;2.90;1.95;;;10.00;99.90;;;;;;5016063;28;20144;-60
2022/04/15 06:10:23;;;;;;;3.13;1.98;;;10.00;99.90;;;;;;5014231;28;20108;-60
2022/04/15 06:13:09;;;;;;;2.97;2.03;;;10.10;99.90;;;;;;5016302;28;20053;-60
2022/04/15 06:15:41;;;;;;;2.90;2.13;;;10.10;99.90;;;;;;5000302;28;20084;-60
2022/04/15 06:18:08;;;;;;;2.65;1.83;;;10.10;99.90;;;;;;5001229;28;20062;-60
2022/04/15 06:20:35;;;;;;;3.33;1.95;;;10.20;99.90;;;;;;5000184;28;20104;-59
2022/04/15 06:23:02;;;;;;;3.47;2.53;;;10.20;99.90;;;;;;5010023;28;20405;-60
2022/04/15 06:25:29;;;;;;;3.50;2.50;;;10.20;99.90;;;;;;5018607;28;20057;-60
2022/04/15 06:27:56;;;;;;;2.72;2.03;;;10.30;99.90;;;;;;5019297;28;20913;-60
2022/04/15 06:30:24;;;;;;;3.45;2.50;;;10.30;99.90;;;;;;5006596;28;20143;-60
2022/04/15 06:32:52;;;;;;;4.07;2.28;;;10.40;99.90;;;;;;5017811;28;20079;-60
2022/04/15 06:35:19;;;;;;;4.05;2.50;;;10.40;99.90;;;;;;5000446;28;20152;-60
2022/04/15 06:37:45;;;;;;;3.28;2.17;;;10.50;99.90;;;;;;5012826;28;20037;-61
2022/04/15 06:40:12;;;;;;;3.60;2.45;;;10.50;99.90;;;;;;5015259;28;20092;-60
2022/04/15 06:42:39;;;;;;;3.15;2.70;;;10.60;99.90;;;;;;5006430;28;20111;-60
2022/04/15 06:45:06;;;;;;;4.45;2.67;;;10.60;99.90;;;;;;5019787;28;20081;-60
2022/04/15 06:47:33;;;;;;;4.88;2.67;;;10.60;99.90;;;;;;5019463;28;20141;-60
2022/04/15 06:50:00;;;;;;;3.72;2.28;;;10.70;99.90;;;;;;5012752;28;20134;-60
2022/04/15 06:52:26;;;;;;;3.88;2.70;;;10.70;99.90;;;;;;5019405;28;20049;-60
2022/04/15 06:54:53;;;;;;;4.00;2.83;;;10.80;99.90;;;;;;5018777;28;20079;-60
2022/04/15 06:57:20;;;;;;;3.22;2.53;;;10.90;99.90;;;;;;5001307;28;20152;-61
2022/04/15 06:59:46;;;;;;;3.47;2.20;;;10.90;99.90;;;;;;5005586;28;20155;-60
2022/04/15 07:02:13;;;;;;;3.40;2.40;;;11.00;99.90;;;;;;5018147;28;20144;-60
2022/04/15 07:04:40;;;;;;;3.10;2.78;;;11.10;99.90;;;;;;5008692;28;20045;-60
2022/04/15 07:07:07;;;;;;;4.53;2.45;;;11.10;99.90;;;;;;5003404;28;20229;-60
2022/04/15 07:09:34;;;;;;;3.03;2.40;;;11.20;99.90;;;;;;5004004;28;20137;-60
2022/04/15 07:12:01;;;;;;;3.10;2.40;;;11.30;99.90;;;;;;5007573;28;20050;-60
2022/04/15 07:14:29;;;;;;;3.65;2.83;;;11.40;99.90;;;;;;5019743;28;20135;-60
2022/04/15 07:16:56;;;;;;;4.80;3.05;;;11.50;99.90;;;;;;5019548;28;20080;-60
2022/04/15 07:19:23;;;;;;;3.88;2.88;;;11.60;99.90;;;;;;5008516;28;20046;-61
2022/04/15 07:21:49;;;;;;;4.07;2.88;;;11.70;99.90;;;;;;5000121;28;20575;-61
2022/04/15 07:24:16;;;;;;;4.03;2.67;;;11.80;99.90;;;;;;5016801;28;20110;-60
2022/04/15 07:26:43;;;;;;;5.82;3.38;;;12.00;99.90;;;;;;5019607;28;20140;-61
2022/04/15 07:29:10;;;;;;;4.70;3.42;;;12.10;99.90;;;;;;5034026;28;20445;-60
2022/04/15 07:31:37;;;;;;;5.22;3.30;;;12.10;99.90;;;;;;5038657;28;20128;-60
2022/04/15 07:34:04;;;;;;;3.85;3.00;;;12.20;99.90;;;;;;5022927;28;20057;-60
2022/04/15 07:39:07;;;;;;;5.15;2.67;;;12.50;99.90;;;;;;5018332;28;20077;-61
2022/04/15 07:41:36;;;;;;;3.45;2.90;;;12.60;99.90;;;;;;5020056;28;20611;-61
2022/04/15 07:44:06;;;;;;;3.63;2.90;;;12.70;99.90;;;;;;5019806;28;20131;-61
2022/04/15 07:46:33;;;;;;;4.05;2.78;;;12.80;99.90;;;;;;5036358;28;20186;-62
2022/04/15 07:49:00;;;;;;;3.30;2.83;;;12.90;99.90;;;;;;5005858;28;20489;-60
2022/04/15 07:51:29;;;;;;;3.47;2.40;;;12.90;99.90;;;;;;5009899;28;20073;-60
2022/04/15 07:53:56;;;;;;;2.67;2.20;;;13.00;99.90;;;;;;5031999;28;20123;-61
2022/04/15 07:56:23;;;;;;;3.47;2.75;;;13.10;99.90;;;;;;5011513;28;20212;-60
2022/04/15 07:58:50;;;;;;;3.17;2.53;;;13.20;99.90;;;;;;5037431;28;20132;-61
2022/04/15 08:01:17;;;;;;;3.83;3.03;;;13.30;99.90;;;;;;5029091;28;20049;-59
2022/04/15 08:03:45;;;;;;;4.10;2.50;;;13.40;99.90;;;;;;5011510;28;20057;-61
2022/04/15 08:06:12;;;;;;;3.17;2.50;;;13.50;99.90;;;;;;5018049;28;20140;-60
2022/04/15 08:08:39;;;;;;;3.72;2.58;;;13.60;99.90;;;;;;5018938;28;20535;-60
2022/04/15 08:11:05;;;;;;;4.30;2.30;;;13.60;99.90;;;;;;5019222;28;20084;-61
2022/04/15 08:13:32;;;;;;;3.63;2.35;;;13.70;99.90;;;;;;5025049;28;20285;-61
2022/04/15 08:15:59;;;;;;;4.28;2.50;;;13.80;99.90;;;;;;5031752;28;20048;-61
2022/04/15 08:18:26;;;;;;;3.20;2.42;;;13.90;99.90;;;;;;5013111;28;20049;-61
2022/04/15 08:20:55;;;;;;;3.50;2.20;;;14.10;99.90;;;;;;5019742;28;20088;-61
2022/04/15 08:23:22;;;;;;;2.78;2.20;;;14.20;99.90;;;;;;5029058;28;20575;-61
2022/04/15 08:25:50;;;;;;;3.50;2.80;;;14.30;99.90;;;;;;5037884;28;20468;-60
2022/04/15 08:28:21;;;;;;;3.40;2.63;;;14.40;99.90;;;;;;5038408;28;20083;-60
2022/04/15 08:30:48;;;;;;;4.25;2.78;;;14.50;99.90;;;;;;5028316;28;20276;-60
2022/04/15 08:33:15;;;;;;;4.15;2.42;;;14.60;99.90;;;;;;5013721;28;20084;-60
2022/04/15 08:35:41;;;;;;;3.78;2.40;;;14.70;99.90;;;;;;5011988;28;20853;-60
2022/04/15 08:38:08;;;;;;;2.85;2.22;;;14.80;99.90;;;;;;5011944;28;20421;-60
2022/04/15 08:40:37;;;;;;;3.78;2.38;;;14.90;99.90;;;;;;5000164;28;20460;-60
2022/04/15 08:43:05;;;;;;;3.22;2.20;;;15.00;99.90;;;;;;5009300;28;20200;-60
2022/04/15 08:45:32;;;;;;;3.13;2.33;;;15.10;99.90;;;;;;5020541;28;20048;-60
2022/04/15 08:48:01;;;;;;;3.88;2.25;;;15.10;99.90;;;;;;5020072;28;20447;-60
2022/04/15 08:50:29;;;;;;;3.88;2.22;;;15.20;99.90;;;;;;5013356;28;20045;-60
2022/04/15 08:52:57;;;;;;;2.60;1.88;;;15.30;99.90;;;;;;5003692;28;20054;-60
2022/04/15 08:55:24;;;;;;;2.95;2.00;;;15.40;99.90;;;;;;4997010;28;20128;-61
2022/04/15 08:57:52;;;;;;;2.45;1.95;;;15.40;99.90;;;;;;5037651;28;20076;-60
2022/04/15 09:00:19;;;;;;;2.50;1.60;;;15.50;99.90;;;;;;5035890;28;20229;-61
2022/04/15 09:02:46;;;;;;;2.67;1.70;;;15.60;99.90;;;;;;5022413;28;20142;-61
2022/04/15 09:05:13;;;;;;;2.53;1.63;;;15.60;99.90;;;;;;5003280;28;20056;-60
2022/04/15 09:07:40;;;;;;;2.13;1.52;;;15.70;99.90;;;;;;5011671;28;20137;-60
2022/04/15 09:10:07;;;;;;;3.38;2.40;;;15.80;99.90;;;;;;5016562;28;20536;-61
2022/04/15 09:12:37;;;;;;;2.15;1.65;;;15.90;99.90;;;;;;5006648;28;20045;-60
2022/04/15 09:15:07;;;;;;;2.90;2.00;;;16.00;99.90;;;;;;5016222;28;20115;-61
2022/04/15 09:17:47;;;;;;;2.13;1.73;;;16.00;99.90;;;;;;5016197;28;20236;-62
2022/04/15 09:20:14;;;;;;;2.20;1.73;;;16.10;99.90;;;;;;5012292;28;20138;-61
2022/04/15 09:22:40;;;;;;;3.35;1.73;;;16.20;99.90;;;;;;5032736;28;20112;-61
2022/04/15 09:25:09;;;;;;;2.80;2.35;;;16.30;99.90;;;;;;5031748;28;20843;-61
2022/04/15 09:27:36;;;;;;;2.85;2.20;;;16.30;99.90;;;;;;5018987;28;20445;-61
2022/04/15 09:30:03;;;;;;;3.22;1.80;;;16.40;99.90;;;;;;5035201;28;20095;-61
2022/04/15 09:32:30;;;;;;;2.97;1.90;;;16.40;99.90;;;;;;5035828;28;20227;-61
2022/04/15 09:35:07;;;;;;;2.55;1.75;;;16.50;99.90;;;;;;5017146;28;20160;-60
2022/04/15 09:37:42;;;;;;;2.35;1.90;;;16.60;99.90;;;;;;5010828;28;20400;-61
2022/04/15 09:40:13;;;;;;;2.42;1.30;;;16.70;99.90;;;;;;5010476;28;20062;-61
2022/04/15 09:42:58;;;;;;;3.15;1.60;;;16.70;99.90;;;;;;5011334;28;20058;-61
2022/04/15 09:45:34;;;;;;;2.65;2.00;;;16.80;99.90;;;;;;5006518;28;20125;-61
2022/04/15 09:48:08;;;;;;;3.97;2.33;;;16.90;99.90;;;;;;5008117;28;20136;-61
2022/04/15 09:50:43;;;;;;;3.20;1.90;;;17.00;99.90;;;;;;5017436;28;20049;-61
2022/04/15 09:53:10;;;;;;;2.90;2.30;;;17.10;99.90;;;;;;5004451;28;20505;-61
2022/04/15 09:55:39;;;;;;;2.53;2.13;;;17.10;99.90;;;;;;5009612;28;20092;-60
2022/04/15 09:58:17;;;;;;;2.03;1.58;;;17.30;99.90;;;;;;5004963;28;20632;-60
2022/04/15 10:00:49;;;;;;;2.25;1.60;;;17.30;99.90;;;;;;5008376;28;20077;-60
2022/04/15 10:03:19;;;;;;;2.95;1.80;;;17.30;99.90;;;;;;4989884;28;20136;-61
2022/04/15 10:05:46;;;;;;;2.88;1.90;;;17.40;99.90;;;;;;5016061;28;20092;-61
2022/04/15 10:08:13;;;;;;;3.17;1.90;;;17.50;99.90;;;;;;5031436;28;20072;-61
2022/04/15 10:10:39;;;;;;;2.60;2.30;;;17.50;99.90;;;;;;5036274;28;20102;-62
2022/04/15 10:13:06;;;;;;;3.63;1.95;;;17.50;99.90;;;;;;5014264;28;20619;-62
2022/04/15 10:15:36;;;;;;;3.53;2.50;;;17.50;99.90;;;;;;5015003;28;20156;-61
2022/04/15 10:18:04;;;;;;;3.53;2.67;;;17.60;99.90;;;;;;5014486;28;20107;-62
2022/04/15 10:20:31;;;;;;;3.25;2.13;;;17.70;99.90;;;;;;5002300;28;20046;-61
2022/04/15 10:23:02;;;;;;;4.40;1.92;;;17.80;99.90;;;;;;5000294;28;20129;-62
2022/04/15 10:25:30;;;;;;;2.03;1.58;;;17.90;99.90;;;;;;5015192;28;20114;-61
2022/04/15 10:28:13;;;;;;;3.00;2.00;;;17.90;99.90;;;;;;5015753;28;20071;-61
2022/04/15 10:31:03;;;;;;;2.90;1.90;;;18.00;99.90;;;;;;5004331;28;20122;-61
2022/04/15 10:33:32;;;;;;;2.70;1.70;;;18.00;99.90;;;;;;5000888;28;20164;-61
2022/04/15 10:35:59;;;;;;;1.98;1.63;;;18.10;99.90;;;;;;5020050;28;20045;-62
2022/04/15 10:38:26;;;;;;;3.40;1.60;;;18.20;99.90;;;;;;5036932;28;20519;-61
2022/04/15 10:40:53;;;;;;;2.53;1.70;;;18.30;99.90;;;;;;5039577;28;20159;-61
2022/04/15 10:43:24;;;;;;;1.92;1.40;;;18.40;99.90;;;;;;5015691;28;20428;-62
2022/04/15 10:46:13;;;;;;;2.22;1.70;;;18.50;99.90;;;;;;5019911;28;20065;-61
2022/04/15 10:48:41;;;;;;;2.10;1.35;;;18.50;99.90;;;;;;5020753;28;20057;-61
2022/04/15 10:51:20;;;;;;;2.10;1.42;;;18.70;99.90;;;;;;5001103;28;20200;-61
2022/04/15 10:53:47;;;;;;;3.67;1.33;;;18.80;99.90;;;;;;5029866;28;20057;-61
2022/04/15 10:56:14;;;;;;;1.95;1.50;;;18.80;99.90;;;;;;5005344;28;20088;-61
2022/04/15 11:02:00;;;;;;;1.92;1.40;;;18.80;99.90;;;;;;5016270;28;20065;-62
2022/04/15 11:04:35;;;;;;;1.70;1.42;;;18.90;99.90;;;;;;5015932;28;20450;-61
2022/04/15 11:07:24;;;;;;;2.03;1.30;;;19.00;99.90;;;;;;5008027;28;20144;-61
2022/04/15 11:09:51;;;;;;;2.45;1.52;;;19.20;99.90;;;;;;5019522;28;20045;-61
2022/04/15 11:12:42;;;;;;;2.50;1.65;;;19.40;99.90;;;;;;5030172;28;20148;-61
2022/04/15 11:15:09;;;;;;;1.70;1.25;;;19.60;99.90;;;;;;5000309;28;20049;-62
2022/04/15 11:17:41;;;;;;;1.67;1.30;;;19.60;99.90;;;;;;5040111;28;20141;-61
2022/04/15 11:20:08;;;;;;;2.08;1.45;;;19.70;99.90;;;;;;5021467;28;20166;-61
2022/04/15 11:22:42;;;;;;;1.55;1.27;;;19.80;99.90;;;;;;5019094;28;20046;-62
2022/04/15 11:25:10;;;;;;;1.70;1.20;;;20.00;99.90;;;;;;5020241;28;20128;-62
2022/04/15 11:27:39;;;;;;;2.55;1.60;;;20.20;99.90;;;;;;5017802;28;20057;-61
2022/04/15 11:30:13;;;;;;;1.80;1.30;;;20.40;99.90;;;;;;5014464;28;20136;-62
2022/04/15 11:32:51;;;;;;;1.60;0.90;;;20.50;99.90;;;;;;5002281;28;20153;-61
2022/04/15 11:35:28;;;;;;;2.00;1.00;;;20.80;99.90;;;;;;4983083;28;20050;-60
2022/04/15 11:38:03;;;;;;;1.13;0.90;;;21.20;99.90;;;;;;5013453;28;20509;-60
2022/04/15 11:40:34;;;;;;;2.00;1.00;;;21.40;99.90;;;;;;5017618;28;20084;-60
2022/04/15 11:43:01;;;;;;;1.15;0.85;;;21.70;99.40;;;;;;5019627;28;20137;-61
2022/04/15 11:45:39;;;;;;;1.30;0.88;;;22.00;98.40;;;;;;5009835;28;20042;-60
2022/04/15 11:48:21;;;;;;;1.48;0.75;;;22.20;99.30;;;;;;5001361;28;20133;-60
2022/04/15 11:50:50;;;;;;;1.50;0.67;;;22.50;98.50;;;;;;5026357;28;20480;-61
2022/04/15 11:53:18;;;;;;;1.50;0.82;;;22.80;96.80;;;;;;5015433;28;20500;-61
2022/04/15 11:55:55;;;;;;;1.60;0.75;;;23.10;96.80;;;;;;5019026;28;20115;-63
2022/04/15 11:58:22;;;;;;;0.85;0.70;;;23.40;96.00;;;;;;5010001;28;20100;-62
2022/04/15 12:00:56;;;;;;;1.13;0.93;;;23.70;95.60;;;;;;5002991;28;20053;-61
2022/04/15 12:03:23;;;;;;;2.40;1.20;;;24.00;96.50;;;;;;5009876;28;20117;-62
2022/04/15 12:05:51;;;;;;;1.98;0.93;;;24.10;94.00;;;;;;5001294;28;20121;-61
2022/04/15 12:08:21;;;;;;;1.33;0.90;;;23.90;94.70;;;;;;4999295;28;20494;-61
2022/04/15 12:10:48;;;;;;;1.50;1.00;;;23.90;94.10;;;;;;4998085;28;20136;-61
2022/04/15 12:13:16;;;;;;;1.30;0.70;;;24.30;93.80;;;;;;5001011;28;20099;-61
2022/04/15 12:15:44;;;;;;;1.52;0.80;;;24.70;93.60;;;;;;5013429;28;20077;-62
2022/04/15 12:18:11;;;;;;;1.05;0.68;;;24.90;92.50;;;;;;5015472;28;20067;-61
2022/04/15 12:20:39;;;;;;;1.10;0.80;;;25.20;92.60;;;;;;5005177;28;20069;-62
2022/04/15 12:23:08;;;;;;;1.08;0.40;;;25.70;91.80;;;;;;5003646;28;20275;-61
2022/04/15 12:31:24;;;;;;;0.55;0.32;;;26.00;90.20;;;;;;5006447;28;20188;-62
2022/04/15 12:33:55;;;;;;;0.32;0.30;;;26.40;88.00;;;;;;5007840;28;20061;-62
2022/04/15 12:36:22;;;;;;;0.73;0.50;;;25.80;88.70;;;;;;5016653;28;20212;-61
2022/04/15 12:39:14;;;;;;;1.33;0.63;;;25.60;88.70;;;;;;4998442;28;20132;-62
2022/04/15 12:41:42;;;;;;;1.10;0.70;;;25.80;88.80;;;;;;5008715;28;20164;-62
2022/04/15 12:44:15;;;;;;;0.82;0.60;;;26.00;88.60;;;;;;5006844;28;20228;-62
2022/04/15 12:46:46;;;;;;;1.38;0.38;;;26.30;88.60;;;;;;5004975;28;20633;-62
2022/04/15 12:49:33;;;;;;;1.30;0.60;;;26.50;84.70;;;;;;4997620;28;20333;-62
2022/04/15 12:52:13;;;;;;;0.77;0.35;;;26.30;84.60;;;;;;5011884;28;20392;-62
2022/04/15 12:55:02;;;;;;;0.77;0.50;;;25.60;84.50;;;;;;5020972;28;20087;-61
2022/04/15 12:57:36;;;;;;;1.20;0.82;;;24.80;83.60;;;;;;4997613;28;20085;-62
2022/04/15 13:00:10;;;;;;;1.33;0.60;;;24.20;84.90;;;;;;4997110;28;20151;-62
2022/04/15 13:02:38;;;;;;;0.73;0.47;;;23.90;86.60;;;;;;4997800;28;20335;-62
2022/04/15 13:05:06;;;;;;;0.82;0.55;;;23.70;87.30;;;;;;5014461;28;20148;-62
2022/04/15 13:07:33;;;;;;;2.58;0.88;;;24.00;88.00;;;;;;5009780;28;20110;-62